createdAt,value
2023-05-17T00:00:00.000Z,86.88
2023-05-17T00:15:00.000Z,86.9
2023-05-17T00:30:00.000Z,86.76
2023-05-17T00:45:00.000Z,86.64
2023-05-17T01:00:00.000Z,86.6
2023-05-17T01:15:00.000Z,86.46
2023-05-17T01:30:00.000Z,86.61
2023-05-17T01:45:00.000Z,86.43
2023-05-17T02:00:00.000Z,86.36
2023-05-17T02:15:00.000Z,86.04
2023-05-17T02:30:00.000Z,86.15
2023-05-17T02:45:00.000Z,85.95
2023-05-17T03:00:00.000Z,85.53
2023-05-17T03:15:00.000Z,85.56
2023-05-17T03:30:00.000Z,85.52
2023-05-17T03:45:00.000Z,85.26
2023-05-17T04:00:00.000Z,85.35
2023-05-17T04:15:00.000Z,85.1
2023-05-17T04:15:00.000Z,85.1
2023-05-17T04:45:00.000Z,85.19
2023-05-17T05:00:00.000Z,85.32
2023-05-17T05:15:00.000Z,84.84
2023-05-17T05:30:00.000Z,84.63
2023-05-17T05:45:00.000Z,83.96
2023-05-17T06:00:00.000Z,83.79
2023-05-17T06:15:00.000Z,83.32
2023-05-17T06:30:00.000Z,83.07
2023-05-17T06:45:00.000Z,83.17
2023-05-17T07:00:00.000Z,83.03
2023-05-17T07:15:00.000Z,82.74
2023-05-17T07:30:00.000Z,82.81
2023-05-17T07:45:00.000Z,82.67
2023-05-17T08:00:00.000Z,82.86
2023-05-17T08:15:00.000Z,83.14
2023-05-17T08:30:00.000Z,83.48
2023-05-17T08:45:00.000Z,82.84
2023-05-17T09:00:00.000Z,82.58
2023-05-17T09:15:00.000Z,81.99
2023-05-17T09:30:00.000Z,81.52
2023-05-17T09:45:00.000Z,79.93
2023-05-17T10:00:00.000Z,79.66
2023-05-17T10:15:00.000Z,78.94
2023-05-17T10:30:00.000Z,78.76
2023-05-17T10:45:00.000Z,78.86
2023-05-17T11:00:00.000Z,78.15
2023-05-17T11:15:00.000Z,74.93
2023-05-17T11:30:00.000Z,73.58
2023-05-17T11:45:00.000Z,72.7
2023-05-17T12:00:00.000Z,73.39
2023-05-17T12:15:00.000Z,74.08
2023-05-17T12:30:00.000Z,71.44
2023-05-17T12:45:00.000Z,70.17
2023-05-17T13:00:00.000Z,70.7
2023-05-17T13:15:00.000Z,70.87
2023-05-17T13:30:00.000Z,73.11
2023-05-17T13:45:00.000Z,72.5
2023-05-17T14:00:00.000Z,74.55
2023-05-17T14:15:00.000Z,77.42
2023-05-17T14:30:00.000Z,79.16
2023-05-17T14:45:00.000Z,80.63
2023-05-17T15:00:00.000Z,81
2023-05-17T15:15:00.000Z,81.74
2023-05-17T15:30:00.000Z,81.7
2023-05-17T15:45:00.000Z,81.56
2023-05-17T16:00:00.000Z,79.09
2023-05-17T16:15:00.000Z,76.57
2023-05-17T16:30:00.000Z,77.24
2023-05-17T16:45:00.000Z,77.2
2023-05-17T17:00:00.000Z,77.07
2023-05-17T17:15:00.000Z,75.87
2023-05-17T17:30:00.000Z,73.46
2023-05-17T17:45:00.000Z,73.44
2023-05-17T18:00:00.000Z,75.45
2023-05-17T18:15:00.000Z,78.22
2023-05-17T18:30:00.000Z,80.72
2023-05-17T18:45:00.000Z,80.75
2023-05-17T19:00:00.000Z,80.46
2023-05-17T19:15:00.000Z,80.65
2023-05-17T19:30:00.000Z,81.42
2023-05-17T19:45:00.000Z,81.9
2023-05-17T20:00:00.000Z,82.29
2023-05-17T20:15:00.000Z,82.28
2023-05-17T20:30:00.000Z,82.21
2023-05-17T20:45:00.000Z,82.57
2023-05-17T21:00:00.000Z,82.68
2023-05-17T21:15:00.000Z,82.87
2023-05-17T21:30:00.000Z,82.76
2023-05-17T21:45:00.000Z,82.65
2023-05-17T22:00:00.000Z,82.4
2023-05-17T22:15:00.000Z,83.02
2023-05-17T22:30:00.000Z,82.73
2023-05-17T22:45:00.000Z,83.04
2023-05-17T23:00:00.000Z,83.22
2023-05-17T23:15:00.000Z,82.62
2023-05-17T23:30:00.000Z,82.15
2023-05-17T23:45:00.000Z,82.24
